Rockvale, TN (37153)

7:23 PM CDT on August 28, 2015 (GMT -0500)
Amateur Radio Station KM4TM | | Change Station
CLOSE
Current Station
Personal Weather Station
Location: Rockvale, TN
Elevation: 807 ft
Nearby Weather Stations

Elev 807 ft 35.76 °N, 86.55 °W | Updated 15 seconds ago

Clear
Clear
76.3 °F
Feels Like 78 °F
N
0.0
Wind Variable Wind from SE
Gusts 1.0 mph

Today
High -- | Low -- °F
--% Chance of Precip.
Yesterday
High -- | Low -- °F
Precip. -- in
6:14 AM 7:19 PM
Waxing Gibbous, 99% visible
Pressure 30.08 in
Visibility 10.0 miles
Clouds Few 6000 ft
Heat Index 78 °F
Dew Point 69 °F
Humidity 79%
Rainfall 0.00 in
Snow Depth Not available.
UV 0 out of 12
Pollen 9.50 out of 12
Air Quality Not available.
Flu Activity Not available.
METAR KMQY 282356Z 19003KT 10SM FEW060 29/18 A3006 RMK AO2 55000 T02940177 10350 20294 SLP184
Pressure 30.08 in
Visibility 10.0 miles
Clouds Few 6000 ft
Heat Index 78 °F
Dew Point 69 °F
Humidity 79%
Rainfall 0.00 in
Snow Depth Not available.
UV 0 out of 12
Pollen 9.50 out of 12
Air Quality Not available.
Flu Activity Not available.
METAR KMQY 282356Z 19003KT 10SM FEW060 29/18 A3006 RMK AO2 55000 T02940177 10350 20294 SLP184

10-Day Weather Forecast

×

Almanac

Astronomy

Aug. 28, 2015 Rise Set
Actual Time
Civil Twilight
Nautical Twilight
Astronomical Twilight
Moon
Length of Visible Light
Length of Day
Tomorrow will be .
, % of the Moon is Illuminated

Today's Extremes

State Highs State Lows

Community

WunderPhotos

Upload Photos

1,850,545 photos uploaded!

WunderBlogs® & News

Nearby

Air Quality

  Air Quality AQ Index Pollutant
Not available.

Snow Depth

Station Depth Elevation

Earthquake Activity

City Distance Mag. Time & Date
Minimum magnitude displayed is 2.5.

Coastal Water Temperatures

Place Temperature

Stations

Nearby Weather Stations

Station Location Temp. Windchill Dew Point Humidity Wind Precip. Elev Updated Type